Terminal Aerodrome Forecast
Issued by NWS Shreveport, LA

Home | Current Version | Previous Version | Text Only | Print | Product List | Glossary On
Versions: 1 2 3 4 5 6 7 8 9 10 11 12 13 14 15 16 17 18 19 20 21 22 23 24
803
FTUS44 KSHV 171751
TAFLFK
TAF
KLFK 171751Z 1718/1818 27006KT 6SM -DZ OVC010
     FM172100 34006KT 5SM -RA BR OVC015
     FM180100 36004KT 6SM -RA BR OVC007
     FM180300 02004KT 4SM BR OVC015
     FM181000 06004KT 4SM -DZ BR OVC003
     FM181400 09006KT 1 1/2SM BR OVC003=

USA.gov is the U.S. government's official web portal to all federal, state and local government web resources and services.